Time;durP1;ratioP1;P1;durP2;ratioP2;P2;SDS_P1;SDS_P2;PMS_P1;PMS_P2;Temp;Humidity;BMP_temperature;BMP_pressure;BME280_temperature;BME280_humidity;BME280_pressure;Samples;Min_cycle;Max_cycle;Signal;HPM_P1;HPM_P2
2021/01/02 00:00:15;;;;;;;57.63;32.90;;;;;;;-0.21;100.00;95086.31;1038995;28;20518;-74
2021/01/02 00:00:46;;;;;;;57.80;31.97;;;;;;;-0.30;100.00;95081.44;1039156;28;20026;-75
2021/01/02 00:01:17;;;;;;;61.83;32.70;;;;;;;-0.30;100.00;95076.28;1035203;28;20088;-75
2021/01/02 00:02:14;;;;;;;58.70;33.78;;;;;;;-0.29;100.00;95080.44;1028201;28;20501;-75
2021/01/02 00:02:45;;;;;;;61.22;33.72;;;;;;;-0.22;100.00;95093.28;1026145;28;20030;-76
2021/01/02 00:03:49;;;;;;;63.07;34.03;;;;;;;-0.23;100.00;95086.56;1030798;28;20103;-74
2021/01/02 00:04:19;;;;;;;63.35;33.53;;;;;;;-0.24;100.00;95090.88;1040945;28;20025;-76
2021/01/02 00:05:01;;;;;;;55.43;31.37;;;;;;;-0.24;100.00;95082.38;1042833;28;20057;-74
2021/01/02 00:05:43;;;;;;;61.88;33.90;;;;;;;-0.19;100.00;95092.06;1034979;28;20160;-75
2021/01/02 00:06:32;;;;;;;65.45;34.63;;;;;;;-0.19;100.00;95087.69;1034347;28;20276;-76
2021/01/02 00:07:26;;;;;;;67.28;34.50;;;;;;;-0.21;100.00;95088.91;1035474;28;20463;-75
2021/01/02 00:08:02;;;;;;;61.30;33.63;;;;;;;-0.21;100.00;95096.63;1036296;28;20083;-75
2021/01/02 00:08:32;;;;;;;65.40;33.03;;;;;;;-0.23;100.00;95091.72;1036128;28;20060;-74
2021/01/02 00:09:06;;;;;;;63.97;33.50;;;;;;;-0.24;100.00;95085.72;1039208;28;20071;-74
2021/01/02 00:09:36;;;;;;;64.82;33.13;;;;;;;-0.22;100.00;95087.34;1038417;28;20032;-75
2021/01/02 00:10:07;;;;;;;62.33;35.23;;;;;;;-0.19;100.00;95097.22;1026737;28;20544;-75
2021/01/02 00:11:15;;;;;;;60.60;33.93;;;;;;;-0.20;100.00;95093.03;1035867;28;20133;-74
2021/01/02 00:12:07;;;;;;;65.05;34.00;;;;;;;-0.18;100.00;95088.47;1040525;28;20025;-75
2021/01/02 00:13:07;;;;;;;62.00;31.90;;;;;;;-0.19;100.00;95092.84;1040099;28;20099;-74
2021/01/02 00:14:06;;;;;;;58.55;30.15;;;;;;;-0.19;100.00;95097.22;1038563;28;20167;-74
2021/01/02 00:15:00;;;;;;;61.55;31.58;;;;;;;-0.20;100.00;95093.03;1040709;28;20446;-75
2021/01/02 00:15:36;;;;;;;60.25;32.22;;;;;;;-0.27;100.00;95088.75;1031214;28;20118;-76
2021/01/02 00:16:26;;;;;;;64.50;34.38;;;;;;;-0.26;100.00;95092.91;1035663;28;20030;-75
2021/01/02 00:17:02;;;;;;;60.80;33.75;;;;;;;-0.22;100.00;95097.66;1035343;28;20014;-74
2021/01/02 00:17:38;;;;;;;65.57;32.95;;;;;;;-0.22;100.00;95095.06;1035260;28;20034;-73
2021/01/02 00:18:37;;;;;;;65.90;33.38;;;;;;;-0.21;100.00;95096.63;1026932;28;20084;-75
2021/01/02 00:19:36;;;;;;;62.25;32.40;;;;;;;-0.25;100.00;95102.22;1031266;28;20031;-74
2021/01/02 00:20:13;;;;;;;61.72;32.92;;;;;;;-0.29;100.00;95090.75;1028808;28;20575;-75
2021/01/02 00:21:02;;;;;;;63.97;32.83;;;;;;;-0.29;100.00;95083.00;1028050;28;20040;-75
2021/01/02 00:21:48;;;;;;;60.80;34.30;;;;;;;-0.27;100.00;95096.50;1030536;28;20030;-74
2021/01/02 00:22:33;;;;;;;62.38;32.22;;;;;;;-0.25;100.00;95102.22;1022935;28;20034;-75
2021/01/02 00:23:04;;;;;;;62.60;32.47;;;;;;;-0.28;100.00;95092.31;1023652;28;20055;-76
2021/01/02 00:24:16;;;;;;;58.00;32.37;;;;;;;-0.21;100.00;95096.63;1031034;28;20034;-75
2021/01/02 00:24:48;;;;;;;63.08;32.20;;;;;;;-0.24;100.00;95098.63;1034654;28;20050;-74
2021/01/02 00:25:23;;;;;;;56.13;31.48;;;;;;;-0.28;100.00;95092.31;1034703;28;20014;-75
2021/01/02 00:26:33;;;;;;;59.72;31.80;;;;;;;-0.24;100.00;95096.03;1035006;28;20049;-75
2021/01/02 00:27:05;;;;;;;56.53;32.35;;;;;;;-0.29;100.00;95082.22;1030788;28;20037;-75
2021/01/02 00:27:52;;;;;;;53.35;29.20;;;;;;;-0.24;100.00;95096.03;1029855;28;20125;-75
2021/01/02 00:28:22;;;;;;;50.50;29.55;;;;;;;-0.31;100.00;95090.16;1034510;28;20125;-76
2021/01/02 00:28:53;;;;;;;58.07;30.93;;;;;;;-0.26;100.00;95100.63;1031040;28;20077;-75
2021/01/02 00:29:24;;;;;;;60.33;32.43;;;;;;;-0.26;100.00;95095.50;1029440;28;20453;-74
2021/01/02 00:30:02;;;;;;;61.72;32.85;;;;;;;-0.27;100.00;95096.50;1025653;28;20286;-76
2021/01/02 00:30:51;;;;;;;65.93;34.85;;;;;;;-0.36;100.00;95087.44;1032049;28;20027;-74
2021/01/02 00:31:53;;;;;;;55.53;30.48;;;;;;;-0.23;100.00;95099.44;1034587;28;20025;-73
2021/01/02 00:32:35;;;;;;;63.22;31.95;;;;;;;-0.23;100.00;95094.28;1039107;28;20041;-76
2021/01/02 00:33:29;;;;;;;56.85;31.42;;;;;;;-0.25;100.00;95097.06;1039702;28;20029;-74
2021/01/02 00:34:18;;;;;;;53.15;30.13;;;;;;;-0.25;100.00;95094.47;1043331;28;20488;-73
2021/01/02 00:34:54;;;;;;;63.38;32.58;;;;;;;-0.25;100.00;95099.63;1042384;28;20449;-74
2021/01/02 00:35:28;;;;;;;63.97;33.03;;;;;;;-0.29;100.00;95098.47;1039219;28;20401;-75
2021/01/02 00:36:05;;;;;;;64.00;34.50;;;;;;;-0.36;100.00;95079.72;1030929;28;20162;-75
2021/01/02 00:37:04;;;;;;;60.70;32.63;;;;;;;-0.35;100.00;95083.06;1037250;28;20026;-73
2021/01/02 00:37:36;;;;;;;63.45;34.58;;;;;;;-0.35;100.00;95078.69;1027052;28;20031;-76
2021/01/02 00:38:07;;;;;;;60.45;34.17;;;;;;;-0.26;100.00;95098.06;1027132;28;20031;-73
2021/01/02 00:38:38;;;;;;;63.40;35.35;;;;;;;-0.24;100.00;95090.09;1031172;28;20029;-76
2021/01/02 00:39:15;;;;;;;63.80;33.50;;;;;;;-0.34;100.00;95079.47;1035434;28;20225;-74
2021/01/02 00:40:04;;;;;;;63.80;35.88;;;;;;;-0.25;100.00;95104.78;1035475;28;20511;-74
2021/01/02 00:40:36;;;;;;;61.88;34.72;;;;;;;-0.36;100.00;95082.28;1030443;28;20022;-74
2021/01/02 00:41:06;;;;;;;68.78;35.97;;;;;;;-0.26;100.00;95097.28;1023041;28;20016;-74
2021/01/02 00:41:37;;;;;;;67.70;35.60;;;;;;;-0.22;100.00;95097.66;1029531;28;20568;-73
2021/01/02 00:42:07;;;;;;;65.80;35.17;;;;;;;-0.27;100.00;95081.03;1027261;28;20019;-74
2021/01/02 00:42:40;;;;;;;65.77;36.63;;;;;;;-0.31;100.00;95085.00;1027062;28;20451;-76
2021/01/02 00:43:10;;;;;;;59.42;33.83;;;;;;;-0.28;100.00;95088.97;1030946;28;20513;-72
2021/01/02 00:43:41;;;;;;;63.47;34.43;;;;;;;-0.24;100.00;95101.19;1035605;28;20058;-73
2021/01/02 00:44:14;;;;;;;66.43;35.93;;;;;;;-0.27;100.00;95085.38;1035318;28;20022;-74
2021/01/02 00:44:44;;;;;;;61.08;35.85;;;;;;;-0.21;100.00;95101.78;1034960;28;20030;-75
2021/01/02 00:45:20;;;;;;;64.93;36.57;;;;;;;-0.21;100.00;95088.91;1032392;28;20023;-74
2021/01/02 00:45:50;;;;;;;66.97;36.47;;;;;;;-0.22;100.00;95095.06;1036143;28;20507;-74
2021/01/02 00:46:21;;;;;;;68.63;35.73;;;;;;;-0.24;100.00;95090.88;1043754;28;20021;-76
2021/01/02 00:46:51;;;;;;;64.77;37.00;;;;;;;-0.24;100.00;95097.84;1038876;28;20439;-73
2021/01/02 00:47:22;;;;;;;69.30;37.77;;;;;;;-0.27;100.00;95093.09;1034843;28;20528;-74
2021/01/02 00:47:52;;;;;;;66.33;37.53;;;;;;;-0.32;100.00;95078.28;1027187;28;20019;-73
2021/01/02 00:48:23;;;;;;;64.43;35.47;;;;;;;-0.23;100.00;95096.88;1030651;28;20011;-74
2021/01/02 00:48:53;;;;;;;68.77;37.37;;;;;;;-0.26;100.00;95092.13;1026898;28;20043;-75
2021/01/02 00:49:26;;;;;;;66.33;35.57;;;;;;;-0.33;100.00;95081.09;1031026;28;20037;-73
2021/01/02 00:49:58;;;;;;;67.85;37.53;;;;;;;-0.35;100.00;95078.69;1022933;28;20027;-73
2021/01/02 00:50:28;;;;;;;76.03;38.25;;;;;;;-0.35;100.00;95078.69;1029906;28;20019;-75
2021/01/02 00:51:00;;;;;;;66.43;36.70;;;;;;;-0.21;100.00;95094.06;1030933;28;20105;-75
2021/01/02 00:51:32;;;;;;;64.57;35.92;;;;;;;-0.26;100.00;95097.28;1031163;28;20023;-74
2021/01/02 00:52:41;;;;;;;69.78;36.60;;;;;;;-0.37;100.00;95091.03;1030581;28;20022;-75
2021/01/02 00:53:40;;;;;;;69.07;34.42;;;;;;;-0.31;100.00;95103.03;1026572;28;20428;-77
2021/01/02 00:54:49;;;;;;;70.97;35.15;;;;;;;-0.30;100.00;95099.50;1027332;28;20040;-76
2021/01/02 00:55:25;;;;;;;75.05;34.67;;;;;;;-0.30;100.00;95096.91;1030465;28;20033;-74
2021/01/02 00:56:05;;;;;;;69.10;35.10;;;;;;;-0.28;100.00;95104.41;1037521;28;20029;-75
2021/01/02 00:56:48;;;;;;;68.40;34.20;;;;;;;-0.29;100.00;95102.84;1039193;28;20057;-75
2021/01/02 00:57:33;;;;;;;70.18;34.85;;;;;;;-0.35;100.00;95104.47;1038780;28;20079;-74
2021/01/02 00:58:22;;;;;;;64.97;34.15;;;;;;;-0.29;100.00;95108.00;1030836;28;20053;-77
2021/01/02 00:59:17;;;;;;;66.97;35.67;;;;;;;-0.33;100.00;95106.84;1032611;28;20080;-74
2021/01/02 01:00:22;;;;;;;71.15;35.58;;;;;;;-0.34;100.00;95103.47;1034027;28;20085;-75
2021/01/02 01:00:58;;;;;;;68.07;34.58;;;;;;;-0.36;100.00;95097.75;1022510;29;20035;-74
2021/01/02 01:01:36;;;;;;;66.32;35.22;;;;;;;-0.51;100.00;95086.94;1040553;28;20061;-75
2021/01/02 01:02:16;;;;;;;69.82;36.53;;;;;;;-0.39;100.00;95098.16;1033996;28;20022;-74
2021/01/02 01:03:24;;;;;;;72.05;36.80;;;;;;;-0.45;100.00;95087.91;1026846;28;20113;-76
2021/01/02 01:04:21;;;;;;;70.43;35.33;;;;;;;-0.38;100.00;95104.88;1031982;28;20022;-74
2021/01/02 01:05:07;;;;;;;82.45;36.25;;;;;;;-0.58;100.00;95068.94;1038373;28;20135;-75
2021/01/02 01:05:38;;;;;;;72.18;35.90;;;;;;;-0.51;100.00;95079.22;1028073;28;20025;-73
2021/01/02 01:06:10;;;;;;;75.20;37.27;;;;;;;-0.39;100.00;95098.16;1030530;28;20516;-76
2021/01/02 01:06:41;;;;;;;70.40;37.88;;;;;;;-0.41;100.00;95105.31;1030844;28;20034;-75
2021/01/02 01:07:16;;;;;;;77.03;39.53;;;;;;;-0.41;100.00;95105.31;1034931;28;20088;-73
2021/01/02 01:07:54;;;;;;;71.85;37.00;;;;;;;-0.40;100.00;95104.31;1034984;28;20492;-74
2021/01/02 01:08:24;;;;;;;70.43;38.20;;;;;;;-0.40;100.00;95106.09;1030676;28;20061;-73
2021/01/02 01:08:55;;;;;;;74.60;38.73;;;;;;;-0.41;100.00;95105.31;1030416;28;20030;-75
2021/01/02 01:09:25;;;;;;;77.87;40.10;;;;;;;-0.41;100.00;95109.66;1032988;28;20046;-75
2021/01/02 01:09:56;;;;;;;75.33;38.57;;;;;;;-0.56;100.00;95082.44;1038867;28;20080;-75
2021/01/02 01:10:28;;;;;;;78.27;39.37;;;;;;;-0.51;100.00;95087.72;1030727;28;20026;-74
2021/01/02 01:11:00;;;;;;;73.18;37.40;;;;;;;-0.40;100.00;95106.91;1027282;28;20390;-75
2021/01/02 01:11:35;;;;;;;71.25;38.50;;;;;;;-0.41;100.00;95107.88;1030892;28;20465;-75
2021/01/02 01:12:07;;;;;;;69.88;38.05;;;;;;;-0.44;100.00;95105.72;1030893;28;20034;-74
2021/01/02 01:12:41;;;;;;;76.97;39.70;;;;;;;-0.48;100.00;95102.00;1029034;28;20042;-74
2021/01/02 01:13:19;;;;;;;72.05;38.20;;;;;;;-0.44;100.00;95104.94;1022850;28;20446;-74
2021/01/02 01:13:54;;;;;;;80.68;39.80;;;;;;;-0.51;100.00;95094.66;1027012;28;20038;-75
2021/01/02 01:14:24;;;;;;;73.72;36.97;;;;;;;-0.46;100.00;95101.78;1034502;28;20536;-75
2021/01/02 01:14:55;;;;;;;70.03;37.20;;;;;;;-0.48;100.00;95107.13;1026072;28;20038;-74
2021/01/02 01:15:26;;;;;;;72.33;39.03;;;;;;;-0.49;100.00;95113.31;1030713;28;20482;-74
2021/01/02 01:15:56;;;;;;;77.73;42.43;;;;;;;-0.46;100.00;95107.72;1030371;28;20042;-74
2021/01/02 01:16:26;;;;;;;75.10;40.03;;;;;;;-0.59;100.00;95087.22;1030819;28;20050;-73
2021/01/02 01:16:57;;;;;;;80.53;38.83;;;;;;;-0.52;100.00;95100.84;1034768;28;20487;-74
2021/01/02 01:17:28;;;;;;;72.30;38.60;;;;;;;-0.50;100.00;95102.22;1030530;28;20030;-74
2021/01/02 01:18:17;;;;;;;73.10;37.97;;;;;;;-0.44;100.00;95121.19;1030954;28;20033;-74
2021/01/02 01:19:02;;;;;;;78.53;39.92;;;;;;;-0.43;100.00;95114.25;1033184;28;20038;-74
2021/01/02 01:19:33;;;;;;;78.90;39.33;;;;;;;-0.52;100.00;95095.69;1033041;28;20047;-75
2021/01/02 01:20:04;;;;;;;75.67;38.73;;;;;;;-0.44;100.00;95116.03;1038849;28;20037;-75
2021/01/02 01:20:34;;;;;;;71.88;37.75;;;;;;;-0.42;100.00;95119.19;1026612;28;20035;-75
2021/01/02 01:21:11;;;;;;;77.47;40.37;;;;;;;-0.43;100.00;95117.63;1028819;28;20038;-75
2021/01/02 01:21:44;;;;;;;80.50;37.90;;;;;;;-0.44;100.00;95107.50;1030294;28;20085;-74
2021/01/02 01:22:15;;;;;;;70.53;36.63;;;;;;;-0.52;100.00;95100.84;1033429;28;20117;-73
2021/01/02 01:22:58;;;;;;;75.93;39.30;;;;;;;-0.46;100.00;95112.88;1038466;28;20022;-74
2021/01/02 01:23:49;;;;;;;79.57;39.00;;;;;;;-0.43;100.00;95115.06;1034731;28;20088;-74
2021/01/02 01:24:25;;;;;;;75.55;38.65;;;;;;;-0.46;100.00;95107.72;1031247;28;20148;-75
2021/01/02 01:25:05;;;;;;;73.68;38.45;;;;;;;-0.53;100.00;95100.03;1026433;28;20482;-75
2021/01/02 01:25:45;;;;;;;71.78;38.13;;;;;;;-0.51;100.00;95110.13;1038754;28;20104;-74
2021/01/02 01:26:22;;;;;;;69.60;37.47;;;;;;;-0.59;100.00;95102.66;1030743;28;20105;-74
2021/01/02 01:27:01;;;;;;;72.50;37.42;;;;;;;-0.49;100.00;95118.47;1028721;28;20089;-76
2021/01/02 01:27:54;;;;;;;77.80;39.25;;;;;;;-0.49;100.00;95115.88;1030218;28;20022;-74
2021/01/02 01:28:24;;;;;;;71.88;36.45;;;;;;;-0.50;100.00;95107.38;1028686;28;20034;-73
2021/01/02 01:28:56;;;;;;;85.03;40.73;;;;;;;-0.51;100.00;95110.91;1030529;28;20548;-74
2021/01/02 01:29:28;;;;;;;84.60;41.75;;;;;;;-0.49;100.00;95113.31;1030613;28;20061;-75
2021/01/02 01:29:59;;;;;;;78.35;40.50;;;;;;;-0.60;100.00;95096.72;1030779;28;20556;-76
2021/01/02 01:30:30;;;;;;;78.43;40.92;;;;;;;-0.72;100.00;95082.94;1034808;28;20598;-74
2021/01/02 01:31:01;;;;;;;84.63;42.87;;;;;;;-0.49;100.00;95113.31;1031777;28;20026;-74
2021/01/02 01:31:45;;;;;;;74.33;38.93;;;;;;;-0.66;100.00;95082.09;1034888;28;20061;-74
2021/01/02 01:32:19;;;;;;;76.50;39.17;;;;;;;-0.56;100.00;95102.25;1032865;28;20105;-74
2021/01/02 01:33:03;;;;;;;72.95;38.17;;;;;;;-0.53;100.00;95101.84;1034078;28;20065;-76
2021/01/02 01:33:33;;;;;;;73.00;36.95;;;;;;;-0.49;100.00;95113.31;1030742;28;20030;-75
2021/01/02 01:34:04;;;;;;;70.13;38.27;;;;;;;-0.49;100.00;95113.31;1026739;28;20110;-74
2021/01/02 01:34:35;;;;;;;80.67;40.27;;;;;;;-0.47;100.00;95111.28;1034571;28;20060;-75
2021/01/02 01:35:06;;;;;;;71.80;38.67;;;;;;;-0.48;100.00;95109.72;1033827;28;20030;-74
2021/01/02 01:35:37;;;;;;;80.88;39.80;;;;;;;-0.57;100.00;95106.63;1035270;28;20292;-75
2021/01/02 01:36:07;;;;;;;82.37;40.53;;;;;;;-0.50;100.00;95116.88;1035835;28;20574;-76
2021/01/02 01:36:41;;;;;;;80.63;39.70;;;;;;;-0.69;100.00;95092.03;1034905;28;20028;-76
2021/01/02 01:37:11;;;;;;;79.07;42.22;;;;;;;-0.50;100.00;95122.03;1034702;28;20034;-75
2021/01/02 01:37:42;;;;;;;73.57;39.67;;;;;;;-0.55;100.00;95114.13;1022827;28;20122;-74
2021/01/02 01:38:15;;;;;;;82.50;42.03;;;;;;;-0.55;100.00;95114.13;1026702;28;20035;-74
2021/01/02 01:38:47;;;;;;;82.65;41.92;;;;;;;-0.49;100.00;95123.59;1030728;28;20038;-74
2021/01/02 01:39:20;;;;;;;85.70;42.03;;;;;;;-0.56;100.00;95109.97;1022590;29;20046;-74
2021/01/02 01:39:51;;;;;;;74.32;38.53;;;;;;;-0.55;100.00;95106.41;1038591;28;20028;-77
2021/01/02 01:40:23;;;;;;;84.33;41.97;;;;;;;-0.46;100.00;95120.63;1038924;28;20036;-77
2021/01/02 01:41:02;;;;;;;83.28;40.15;;;;;;;-0.44;100.00;95125.53;1034760;28;20281;-75
2021/01/02 01:41:35;;;;;;;85.20;40.17;;;;;;;-0.46;100.00;95118.03;1032436;28;20025;-76
2021/01/02 01:42:06;;;;;;;82.10;41.25;;;;;;;-0.56;100.00;95107.41;1030075;28;20039;-76
2021/01/02 01:42:43;;;;;;;84.88;40.15;;;;;;;-0.56;100.00;95094.53;1028254;28;20109;-74
2021/01/02 01:43:21;;;;;;;77.25;39.45;;;;;;;-0.51;100.00;95118.66;1026119;28;20048;-74
2021/01/02 01:44:10;;;;;;;87.53;40.67;;;;;;;-0.51;100.00;95120.44;1034747;28;20026;-74
2021/01/02 01:45:12;;;;;;;77.75;38.38;;;;;;;-0.59;100.00;95108.59;1032249;28;20026;-74
2021/01/02 01:46:08;;;;;;;80.32;38.40;;;;;;;-0.54;100.00;95120.84;1036002;28;20022;-73
2021/01/02 01:46:49;;;;;;;83.30;40.40;;;;;;;-0.52;100.00;95121.44;1030551;28;20421;-74
2021/01/02 01:47:20;;;;;;;72.93;38.58;;;;;;;-0.50;100.00;95122.03;1027558;28;20019;-75
2021/01/02 01:48:10;;;;;;;84.50;42.72;;;;;;;-0.56;100.00;95115.13;1022584;29;20232;-74
2021/01/02 01:48:54;;;;;;;83.68;39.95;;;;;;;-0.53;100.00;95114.72;1030707;28;20053;-74
2021/01/02 01:49:30;;;;;;;79.28;38.78;;;;;;;-0.50;100.00;95127.19;1027400;28;20069;-74
2021/01/02 01:50:14;;;;;;;79.65;39.42;;;;;;;-0.48;100.00;95125.19;1034131;28;20026;-75
2021/01/02 01:51:22;;;;;;;89.15;40.75;;;;;;;-0.47;100.00;95124.16;1034823;28;20117;-75
2021/01/02 01:51:59;;;;;;;74.57;36.90;;;;;;;-0.45;100.00;95122.19;1034637;28;20556;-76
2021/01/02 01:52:48;;;;;;;75.13;38.33;;;;;;;-0.43;100.00;95125.34;1038771;28;20121;-74
2021/01/02 01:53:57;;;;;;;75.00;37.08;;;;;;;-0.44;100.00;95122.97;1033618;28;20097;-75
2021/01/02 01:54:52;;;;;;;72.40;36.13;;;;;;;-0.60;100.00;95091.56;1038692;28;20104;-74
2021/01/02 01:55:29;;;;;;;79.88;38.05;;;;;;;-0.39;100.00;95118.00;1038483;28;20021;-74
2021/01/02 01:56:16;;;;;;;76.30;37.92;;;;;;;-0.43;100.00;95115.06;1034511;28;20010;-75
2021/01/02 01:56:50;;;;;;;74.05;36.55;;;;;;;-0.49;100.00;95105.56;1033299;28;20018;-73
2021/01/02 01:57:26;;;;;;;77.35;38.10;;;;;;;-0.43;100.00;95117.63;1030783;28;20049;-75
2021/01/02 01:58:12;;;;;;;79.32;41.03;;;;;;;-0.47;100.00;95108.72;1026619;28;20055;-74
2021/01/02 01:58:45;;;;;;;73.38;38.15;;;;;;;-0.40;100.00;95119.78;1025995;28;20015;-74
2021/01/02 01:59:22;;;;;;;76.13;38.13;;;;;;;-0.37;100.00;95127.09;1029839;28;20037;-74
2021/01/02 01:59:58;;;;;;;73.45;36.80;;;;;;;-0.38;100.00;95122.94;1029692;28;20018;-74
2021/01/02 02:00:29;;;;;;;70.85;37.38;;;;;;;-0.38;100.00;95130.66;1034941;28;20026;-74
2021/01/02 02:01:01;;;;;;;65.87;36.33;;;;;;;-0.47;100.00;95116.44;1030578;28;20416;-73
2021/01/02 02:01:36;;;;;;;71.53;37.22;;;;;;;-0.37;100.00;95127.09;1035570;28;20448;-73
2021/01/02 02:02:13;;;;;;;65.85;35.40;;;;;;;-0.35;100.00;95119.16;1034901;28;20029;-75
2021/01/02 02:02:47;;;;;;;72.45;36.97;;;;;;;-0.33;100.00;95120.53;1032528;28;20529;-75
2021/01/02 02:03:25;;;;;;;70.88;36.38;;;;;;;-0.35;100.00;95114.78;1029699;28;20071;-77
2021/01/02 02:04:24;;;;;;;74.45;36.47;;;;;;;-0.29;100.00;95124.25;1030639;28;20069;-77
2021/01/02 02:05:00;;;;;;;71.38;35.95;;;;;;;-0.31;100.00;95128.81;1022509;28;20417;-75
2021/01/02 02:05:40;;;;;;;67.35;34.13;;;;;;;-0.40;100.00;95112.06;1031465;28;20117;-73
2021/01/02 02:06:29;;;;;;;74.22;35.92;;;;;;;-0.31;100.00;95133.19;1022594;29;20053;-75
2021/01/02 02:07:04;;;;;;;67.97;35.15;;;;;;;-0.48;100.00;95094.25;1025600;28;20118;-74
2021/01/02 02:08:10;;;;;;;67.85;34.85;;;;;;;-0.31;100.00;95126.25;1038722;28;20021;-75
2021/01/02 02:08:43;;;;;;;74.03;36.15;;;;;;;-0.40;100.00;95111.25;1042193;28;20546;-75
2021/01/02 02:09:20;;;;;;;71.15;36.97;;;;;;;-0.33;100.00;95125.69;1034570;28;20017;-74
2021/01/02 02:09:58;;;;;;;77.05;38.10;;;;;;;-0.41;100.00;95114.81;1034831;28;20579;-77
2021/01/02 02:10:29;;;;;;;72.45;36.10;;;;;;;-0.31;100.00;95130.63;1036628;28;20033;-76
2021/01/02 02:11:04;;;;;;;74.15;38.13;;;;;;;-0.39;100.00;95121.34;1036887;28;20029;-75
2021/01/02 02:11:34;;;;;;;62.35;34.45;;;;;;;-0.29;100.00;95132.00;1034665;28;20544;-74
2021/01/02 02:12:05;;;;;;;66.27;35.63;;;;;;;-0.30;100.00;95138.16;1035230;28;20032;-75
2021/01/02 02:12:35;;;;;;;73.17;35.87;;;;;;;-0.29;100.00;95137.16;1031232;28;20433;-75
2021/01/02 02:13:16;;;;;;;72.43;37.13;;;;;;;-0.28;100.00;95127.63;1030731;28;20465;-76
2021/01/02 02:13:49;;;;;;;70.45;36.72;;;;;;;-0.37;100.00;95121.94;1030507;28;20620;-77
2021/01/02 02:14:37;;;;;;;65.32;34.00;;;;;;;-0.37;100.00;95121.94;1028478;28;20259;-74
2021/01/02 02:15:12;;;;;;;69.45;36.50;;;;;;;-0.35;100.00;95124.31;1029509;28;20050;-72
2021/01/02 02:15:46;;;;;;;76.80;35.55;;;;;;;-0.34;100.00;95123.28;1030389;28;20019;-74
2021/01/02 02:16:19;;;;;;;70.25;36.17;;;;;;;-0.30;100.00;95127.84;1026551;28;20103;-77
2021/01/02 02:16:58;;;;;;;71.68;36.40;;;;;;;-0.31;100.00;95128.81;1026343;28;20393;-75
2021/01/02 02:17:44;;;;;;;68.75;36.08;;;;;;;-0.24;100.00;95133.94;1034001;28;20025;-76
2021/01/02 02:18:24;;;;;;;62.13;33.08;;;;;;;-0.34;100.00;95115.56;1031427;28;20061;-74
2021/01/02 02:18:56;;;;;;;58.67;31.40;;;;;;;-0.34;100.00;95115.56;1034017;28;20182;-75
2021/01/02 02:20:06;;;;;;;56.95;31.20;;;;;;;-0.25;100.00;95129.78;1034392;28;20513;-75
2021/01/02 02:20:37;;;;;;;55.60;30.15;;;;;;;-0.23;100.00;95132.94;1016841;29;20034;-74
2021/01/02 02:21:07;;;;;;;55.70;31.37;;;;;;;-0.22;100.00;95133.75;1022263;29;20323;-75
2021/01/02 02:21:38;;;;;;;58.10;31.83;;;;;;;-0.22;100.00;95128.56;1022332;29;20031;-74
2021/01/02 02:22:13;;;;;;;64.20;33.20;;;;;;;-0.36;100.00;95113.22;1012561;29;20024;-76
2021/01/02 02:22:44;;;;;;;64.15;34.30;;;;;;;-0.40;100.00;95114.63;1026402;28;20130;-75
2021/01/02 02:23:14;;;;;;;58.97;33.17;;;;;;;-0.27;100.00;95131.78;1028504;28;20522;-73
2021/01/02 02:23:51;;;;;;;59.73;31.53;;;;;;;-0.33;100.00;95124.91;1034828;28;20026;-73
2021/01/02 02:24:21;;;;;;;62.92;33.45;;;;;;;-0.25;100.00;95132.34;1019499;29;20031;-74
2021/01/02 02:24:52;;;;;;;62.47;32.97;;;;;;;-0.32;100.00;95121.31;1026422;28;20081;-74
2021/01/02 02:25:23;;;;;;;58.63;32.75;;;;;;;-0.23;100.00;95138.09;1033623;28;20022;-74
2021/01/02 02:26:05;;;;;;;59.93;33.10;;;;;;;-0.44;100.00;95097.19;1026495;28;20022;-75
2021/01/02 02:26:36;;;;;;;63.45;32.83;;;;;;;-0.37;100.00;95110.81;1022676;28;20051;-74
2021/01/02 02:27:07;;;;;;;59.54;32.06;;;;;;;-0.22;100.00;95134.53;1022600;28;20588;-76
2021/01/02 02:27:39;;;;;;;61.40;32.27;;;;;;;-0.27;100.00;95113.72;1030412;28;20216;-74
2021/01/02 02:28:10;;;;;;;56.84;31.44;;;;;;;-0.19;100.00;95133.31;1030487;28;20034;-75
2021/01/02 02:28:53;;;;;;;64.10;33.75;;;;;;;-0.26;100.00;95126.41;1026139;28;20676;-75
2021/01/02 02:29:24;;;;;;;59.30;32.17;;;;;;;-0.18;100.00;95129.72;1034423;28;20022;-76
2021/01/02 02:30:14;;;;;;;60.10;32.22;;;;;;;-0.18;100.00;95132.31;1036584;28;20038;-76
2021/01/02 02:30:45;;;;;;;57.20;30.80;;;;;;;-0.23;100.00;95130.38;1044216;28;20086;-74
2021/01/02 02:31:16;;;;;;;56.37;30.73;;;;;;;-0.28;100.00;95125.81;1034741;28;20038;-76
2021/01/02 02:31:46;;;;;;;60.38;32.35;;;;;;;-0.25;100.00;95122.03;1038598;28;20547;-74
2021/01/02 02:32:17;;;;;;;58.60;32.10;;;;;;;-0.29;100.00;95113.94;1037657;28;20136;-76
2021/01/02 02:32:49;;;;;;;58.78;32.78;;;;;;;-0.24;100.00;95123.63;1030556;28;20101;-75
2021/01/02 02:33:19;;;;;;;66.07;34.22;;;;;;;-0.31;100.00;95110.78;1026724;28;20049;-74
2021/01/02 02:33:59;;;;;;;64.23;33.40;;;;;;;-0.27;100.00;95117.13;1022400;28;20059;-75
2021/01/02 02:34:30;;;;;;;50.65;31.15;;;;;;;-0.32;100.00;95111.78;1025580;28;20475;-75
2021/01/02 02:35:08;;;;;;;58.33;30.07;;;;;;;-0.26;100.00;95112.75;1030055;28;20030;-74
2021/01/02 02:35:38;;;;;;;58.22;31.67;;;;;;;-0.29;100.00;95113.94;1034549;28;20080;-75
2021/01/02 02:36:09;;;;;;;62.57;32.17;;;;;;;-0.24;100.00;95129.56;1038038;28;20025;-75
2021/01/02 02:36:39;;;;;;;57.67;30.37;;;;;;;-0.27;100.00;95124.84;1022559;29;20027;-75
2021/01/02 02:37:10;;;;;;;62.37;31.67;;;;;;;-0.28;100.00;95120.66;1030599;28;20034;-74
2021/01/02 02:37:43;;;;;;;52.23;29.73;;;;;;;-0.21;100.00;95132.72;1023551;28;20033;-74
2021/01/02 02:38:14;;;;;;;57.05;31.35;;;;;;;-0.21;100.00;95130.16;1026528;28;20117;-76
2021/01/02 02:38:45;;;;;;;60.10;31.20;;;;;;;-0.36;100.00;95110.63;1027363;28;20477;-76
2021/01/02 02:39:15;;;;;;;55.70;29.40;;;;;;;-0.32;100.00;95111.78;1028681;28;20054;-73
2021/01/02 02:39:46;;;;;;;54.10;30.50;;;;;;;-0.32;100.00;95116.94;1030791;28;20386;-75
2021/01/02 02:40:19;;;;;;;56.90;30.67;;;;;;;-0.30;100.00;95127.84;1034644;28;20083;-75
2021/01/02 02:40:53;;;;;;;56.30;31.40;;;;;;;-0.35;100.00;95116.56;1034488;28;20033;-75
2021/01/02 02:41:28;;;;;;;52.88;29.88;;;;;;;-0.45;100.00;95103.38;1034596;28;20038;-74
2021/01/02 02:42:00;;;;;;;67.30;34.20;;;;;;;-0.40;100.00;95113.81;1023893;28;20090;-73
2021/01/02 02:42:30;;;;;;;60.38;32.55;;;;;;;-0.36;100.00;95118.38;1026741;28;20038;-75
2021/01/02 02:43:02;;;;;;;58.83;30.77;;;;;;;-0.47;100.00;95100.97;1026566;28;20059;-75
2021/01/02 02:43:32;;;;;;;63.08;33.42;;;;;;;-0.53;100.00;95092.31;1038694;28;20021;-74
2021/01/02 02:44:03;;;;;;;56.63;31.37;;;;;;;-0.37;100.00;95111.63;1038396;28;20033;-75
2021/01/02 02:44:36;;;;;;;54.83;30.93;;;;;;;-0.47;100.00;95106.13;1038563;28;20076;-74
2021/01/02 02:45:08;;;;;;;59.05;31.17;;;;;;;-0.42;100.00;95110.69;1029764;28;20030;-74
2021/01/02 02:45:39;;;;;;;55.80;30.13;;;;;;;-0.43;100.00;95112.47;1027782;28;20027;-76
2021/01/02 02:46:12;;;;;;;59.80;32.20;;;;;;;-0.56;100.00;95103.03;1029831;28;20478;-73
2021/01/02 02:46:44;;;;;;;57.08;30.42;;;;;;;-0.58;100.00;95104.25;1026619;28;20564;-74
2021/01/02 02:47:16;;;;;;;54.10;29.25;;;;;;;-0.57;100.00;95100.66;1026565;28;20034;-75
2021/01/02 02:47:47;;;;;;;57.63;31.10;;;;;;;-0.51;100.00;95117.88;1036048;28;20149;-75
2021/01/02 02:48:17;;;;;;;57.10;31.65;;;;;;;-0.91;100.00;95053.72;1039130;28;20044;-74
2021/01/02 02:48:48;;;;;;;58.20;30.83;;;;;;;-0.62;100.00;95095.34;1030463;28;20125;-76
2021/01/02 02:49:22;;;;;;;56.90;31.87;;;;;;;-0.68;100.00;95089.22;1030206;28;20019;-74
2021/01/02 02:49:54;;;;;;;60.55;31.42;;;;;;;-0.59;100.00;95112.97;1034589;28;20289;-74
2021/01/02 02:50:25;;;;;;;63.05;33.63;;;;;;;-0.75;100.00;95089.28;1026177;28;20085;-75
2021/01/02 02:50:56;;;;;;;54.63;30.15;;;;;;;-0.63;100.00;95111.81;1034746;28;20118;-76
2021/01/02 02:51:30;;;;;;;59.00;30.53;;;;;;;-0.71;100.00;95094.81;1034168;28;20091;-75
2021/01/02 02:52:16;;;;;;;52.72;29.98;;;;;;;-0.63;100.00;95104.09;1031802;28;20082;-75